Time;durP1;ratioP1;P1;durP2;ratioP2;P2;SDS_P1;SDS_P2;PMS_P1;PMS_P2;Temp;Humidity;BMP_temperature;BMP_pressure;BME280_temperature;BME280_humidity;BME280_pressure;Samples;Min_cycle;Max_cycle;Signal;HPM_P1;HPM_P2
2022/12/12 00:01:39;;;;;;;55.50;18.33;;;-3.50;68.20;;;-9.16;100.00;94701.03;5034991;28;20036;-49
2022/12/12 00:04:06;;;;;;;55.23;18.53;;;-3.50;68.20;;;-9.15;100.00;94705.22;5031617;28;20056;-47
2022/12/12 00:06:32;;;;;;;80.13;20.13;;;-3.40;68.10;;;-9.10;100.00;94705.53;5027110;28;20177;-48
2022/12/12 00:08:58;;;;;;;51.40;18.77;;;-3.40;68.10;;;-9.06;100.00;94711.97;5050353;28;20428;-47
2022/12/12 00:11:26;;;;;;;56.75;19.70;;;-3.30;68.10;;;-8.98;100.00;94706.00;5045052;28;20082;-50
2022/12/12 00:13:53;;;;;;;46.45;18.08;;;-3.30;68.10;;;-8.93;100.00;94707.13;5042090;28;20111;-48
2022/12/12 00:16:20;;;;;;;45.42;18.95;;;-3.20;68.10;;;-8.90;100.00;94711.13;5049713;28;20440;-47
2022/12/12 00:18:53;;;;;;;90.13;21.02;;;-3.20;68.10;;;-8.88;100.00;94712.56;5037395;28;20035;-48
2022/12/12 00:21:28;;;;;;;49.65;17.95;;;-3.20;68.00;;;-8.83;100.00;94719.03;5029969;28;20025;-47
2022/12/12 00:23:58;;;;;;;82.10;19.17;;;-3.10;68.00;;;-8.82;100.00;94710.31;5042451;28;20406;-49
2022/12/12 00:26:32;;;;;;;76.55;21.15;;;-3.10;67.90;;;-8.78;100.00;94712.38;5021263;28;20051;-47
2022/12/12 00:29:00;;;;;;;81.18;19.80;;;-3.10;67.80;;;-8.75;100.00;94712.06;5050476;28;20360;-46
2022/12/12 00:31:28;;;;;;;60.25;20.17;;;-3.00;68.00;;;-8.76;100.00;94710.44;5033280;28;20032;-48
2022/12/12 00:33:54;;;;;;;44.72;17.50;;;-3.00;67.90;;;-8.72;100.00;94708.34;5046544;28;20020;-47
2022/12/12 00:36:26;;;;;;;56.65;18.83;;;-3.00;68.00;;;-8.69;100.00;94711.38;5045182;28;20040;-47
2022/12/12 00:38:57;;;;;;;87.65;20.25;;;-3.00;67.90;;;-8.69;100.00;94715.75;5017261;28;20020;-48
2022/12/12 00:41:24;;;;;;;160.98;23.00;;;-2.90;67.90;;;-8.66;100.00;94718.00;5048320;28;20119;-53
2022/12/12 00:43:50;;;;;;;48.33;17.77;;;-2.90;67.80;;;-8.60;100.00;94717.31;5044637;28;20067;-47
2022/12/12 00:46:36;;;;;;;53.30;18.60;;;-2.90;67.80;;;-8.54;100.00;94718.44;5029792;28;20479;-48
2022/12/12 00:49:05;;;;;;;56.33;18.88;;;-2.80;67.90;;;-8.62;100.00;94720.09;5039355;28;20021;-51
2022/12/12 00:51:49;;;;;;;49.67;17.63;;;-2.80;67.70;;;-8.64;100.00;94722.03;5029536;28;20028;-47
2022/12/12 00:54:17;;;;;;;39.03;17.20;;;-2.80;67.60;;;-8.57;100.00;94729.09;5030108;28;20035;-48
2022/12/12 00:56:52;;;;;;;44.67;18.27;;;-2.80;67.60;;;-8.56;100.00;94728.94;5030468;28;20056;-47
2022/12/12 00:59:18;;;;;;;40.22;16.85;;;-2.80;67.50;;;-8.53;100.00;94731.16;5031494;28;20393;-47
2022/12/12 01:01:46;;;;;;;42.10;17.23;;;-2.80;67.50;;;-8.56;100.00;94723.75;5014972;28;20028;-49
2022/12/12 01:04:12;;;;;;;49.78;18.42;;;-2.80;67.50;;;-8.56;100.00;94739.25;5029196;28;20121;-48
2022/12/12 01:06:38;;;;;;;92.55;19.80;;;-2.80;67.40;;;-8.59;100.00;94741.38;5046542;28;20064;-48
2022/12/12 01:09:07;;;;;;;123.05;21.30;;;-2.80;67.30;;;-8.58;100.00;94743.81;5029520;28;20082;-48
2022/12/12 01:11:35;;;;;;;62.03;19.58;;;-2.80;67.30;;;-8.56;100.00;94743.63;5032867;28;20051;-49
2022/12/12 01:14:01;;;;;;;75.43;19.08;;;-2.80;67.30;;;-8.55;100.00;94743.47;5036040;28;20024;-49
2022/12/12 01:16:29;;;;;;;103.35;19.73;;;-2.80;67.30;;;-8.54;100.00;94739.09;5028878;28;20028;-47
2022/12/12 01:18:55;;;;;;;114.40;20.92;;;-2.80;67.30;;;-8.49;100.00;94744.56;5045064;28;20600;-48
2022/12/12 01:21:21;;;;;;;73.20;18.65;;;-2.80;67.30;;;-8.45;100.00;94756.19;5048601;28;20462;-50
2022/12/12 01:23:48;;;;;;;79.72;19.50;;;-2.70;67.40;;;-8.46;100.00;94749.38;5048555;28;20027;-48
2022/12/12 01:26:23;;;;;;;110.93;21.55;;;-2.80;67.40;;;-8.44;100.00;94752.63;5032213;28;20025;-48
2022/12/12 01:28:53;;;;;;;72.18;18.58;;;-2.70;67.50;;;-8.46;100.00;94755.38;5041167;28;20132;-48
2022/12/12 01:31:24;;;;;;;173.85;22.40;;;-2.70;67.60;;;-8.45;100.00;94758.75;5039947;28;20055;-48
2022/12/12 01:33:51;;;;;;;98.17;21.63;;;-2.70;67.60;;;-8.40;100.00;94757.28;5039353;28;20027;-48
2022/12/12 01:36:25;;;;;;;106.85;21.33;;;-2.70;67.60;;;-8.36;100.00;94759.50;5029668;28;20033;-48
2022/12/12 01:38:55;;;;;;;137.00;21.38;;;-2.70;67.70;;;-8.31;100.00;94765.75;5029209;28;20028;-48
2022/12/12 01:41:23;;;;;;;104.78;22.02;;;-2.60;67.90;;;-8.21;100.00;94760.38;5040423;28;20614;-48
2022/12/12 01:43:49;;;;;;;138.82;22.42;;;-2.60;68.00;;;-8.14;100.00;94766.50;5030425;28;20130;-48
2022/12/12 01:46:38;;;;;;;146.05;22.48;;;-2.60;68.10;;;-8.07;100.00;94770.03;5030063;28;20090;-47
2022/12/12 01:49:26;;;;;;;114.85;21.95;;;-2.50;68.20;;;-8.04;100.00;94771.47;5034466;28;20058;-47
2022/12/12 01:52:03;;;;;;;228.82;24.15;;;-2.40;68.20;;;-7.98;100.00;94760.44;5028550;28;20035;-47
2022/12/12 01:54:39;;;;;;;178.63;21.58;;;-2.40;68.10;;;-8.00;100.00;94760.59;5041904;28;20037;-51
2022/12/12 01:57:16;;;;;;;174.73;23.90;;;-2.40;68.10;;;-7.97;100.00;94762.84;5041747;28;20025;-50
2022/12/12 02:00:03;;;;;;;94.90;17.60;;;-2.40;68.00;;;-7.94;100.00;94770.25;5030981;28;20379;-47
2022/12/12 02:02:29;;;;;;;112.72;20.02;;;-2.30;68.10;;;-7.91;100.00;94776.88;5028820;28;20503;-47
2022/12/12 02:05:08;;;;;;;128.13;19.45;;;-2.20;68.00;;;-7.85;100.00;94771.03;5029172;28;20025;-48
2022/12/12 02:07:34;;;;;;;260.98;25.17;;;-2.20;68.00;;;-7.81;100.00;94771.50;5035471;28;20349;-48
2022/12/12 02:10:00;;;;;;;153.75;20.55;;;-2.20;67.90;;;-7.78;100.00;94774.53;5035199;28;20024;-47
2022/12/12 02:12:29;;;;;;;116.97;22.17;;;-2.10;68.00;;;-7.72;100.00;94767.88;5047760;28;20803;-47
2022/12/12 02:14:58;;;;;;;90.13;20.63;;;-2.10;68.00;;;-7.71;100.00;94769.47;5028329;28;20127;-48
2022/12/12 02:17:52;;;;;;;172.35;21.58;;;-2.00;68.00;;;-7.69;100.00;94767.53;5040993;28;20032;-49
2022/12/12 02:20:49;;;;;;;108.68;19.67;;;-2.00;67.90;;;-7.64;100.00;94767.84;5029766;28;20138;-47
2022/12/12 02:23:51;;;;;;;187.60;22.23;;;-1.90;67.80;;;-7.59;100.00;94767.31;5020732;28;20024;-48
2022/12/12 02:27:05;;;;;;;98.32;20.15;;;-1.90;67.80;;;-7.60;100.00;94765.69;5051951;28;20469;-47
2022/12/12 02:29:56;;;;;;;115.85;20.90;;;-1.90;67.80;;;-7.58;100.00;94774.91;5047479;28;20078;-47
2022/12/12 02:33:05;;;;;;;85.20;17.75;;;-1.90;67.70;;;-7.54;100.00;94770.19;5049941;28;20033;-47
2022/12/12 02:36:00;;;;;;;183.00;22.33;;;-1.80;67.80;;;-7.51;100.00;94775.03;5037302;28;20039;-48
2022/12/12 02:39:04;;;;;;;167.02;21.63;;;-1.80;67.80;;;-7.48;100.00;94772.88;5032897;28;20123;-51
2022/12/12 02:42:22;;;;;;;490.42;34.13;;;-1.80;67.80;;;-7.49;100.00;94768.69;5048026;28;20019;-50
2022/12/12 02:45:10;;;;;;;383.10;32.20;;;-1.70;67.70;;;-7.49;100.00;94778.22;5007011;28;20090;-49
2022/12/12 02:47:52;;;;;;;82.32;19.42;;;-1.70;67.70;;;-7.46;100.00;94773.53;5040794;28;20016;-49
2022/12/12 02:50:26;;;;;;;119.68;20.58;;;-1.70;67.60;;;-7.45;100.00;94775.13;5034459;28;20119;-48
2022/12/12 02:52:52;;;;;;;124.22;21.33;;;-1.70;67.60;;;-7.42;100.00;94773.97;5032599;28;20053;-48
2022/12/12 02:55:28;;;;;;;660.45;39.95;;;-1.60;67.60;;;-7.43;100.00;94780.13;5031641;28;20035;-49
2022/12/12 02:57:57;;;;;;;155.73;20.73;;;-1.60;67.60;;;-7.46;100.00;94780.47;5014790;28;20033;-49
2022/12/12 03:00:24;;;;;;;125.25;20.95;;;-1.60;67.50;;;-7.45;100.00;94780.31;5019123;28;20138;-50
2022/12/12 03:10:15;;;;;;;104.93;20.02;;;-1.70;67.20;;;-7.62;100.00;94778.00;5039423;28;20082;-48
2022/12/12 03:13:02;;;;;;;115.30;19.88;;;-1.80;67.10;;;-7.70;100.00;94778.88;5016460;28;20040;-47
2022/12/12 03:16:25;;;;;;;130.65;21.42;;;-1.90;67.00;;;-7.76;100.00;94780.34;5031925;28;20053;-47
2022/12/12 03:19:29;;;;;;;173.32;23.25;;;-2.00;66.90;;;-7.80;100.00;94775.66;5050753;28;20115;-48
2022/12/12 03:22:22;;;;;;;150.63;20.77;;;-2.00;67.00;;;-7.94;100.00;94775.44;5053096;28;20015;-48
2022/12/12 03:25:12;;;;;;;;;;;-2.10;66.90;;;-7.96;100.00;94780.00;5031360;28;20024;-48
2022/12/12 03:28:00;;;;;;;154.65;20.38;;;-2.20;66.90;;;-7.99;100.00;94782.09;5054402;28;19994;-49
2022/12/12 03:30:41;;;;;;;124.22;19.63;;;-2.30;66.80;;;-8.02;100.00;94782.41;5059531;28;20028;-49
2022/12/12 03:33:36;;;;;;;104.95;19.95;;;-2.30;66.90;;;-8.07;100.00;94774.38;5064030;28;20024;-48
2022/12/12 03:36:44;;;;;;;76.65;19.08;;;-2.30;67.00;;;-8.12;100.00;94774.88;5030493;28;20411;-49
2022/12/12 03:39:28;;;;;;;108.85;18.85;;;-2.30;67.00;;;-8.13;100.00;94775.88;5070383;28;20070;-48
2022/12/12 03:42:28;;;;;;;128.30;19.98;;;-2.40;66.90;;;-8.17;100.00;94777.19;5030293;28;20044;-47
2022/12/12 03:45:25;;;;;;;121.93;21.30;;;-2.40;66.90;;;-8.25;100.00;94777.22;5053823;28;20110;-48
2022/12/12 03:48:04;;;;;;;116.20;17.77;;;-2.50;66.90;;;-8.31;100.00;94777.88;5053030;28;20048;-47
2022/12/12 03:50:47;;;;;;;131.50;19.98;;;-2.50;66.90;;;-8.33;100.00;94780.66;5043338;28;20062;-47
2022/12/12 03:53:42;;;;;;;159.15;19.98;;;-2.50;66.90;;;-8.38;100.00;94781.13;5057216;28;20027;-47
2022/12/12 03:56:28;;;;;;;281.52;23.98;;;-2.60;66.90;;;-8.44;100.00;94781.84;5050159;28;20054;-47
2022/12/12 03:59:21;;;;;;;162.48;21.88;;;-2.60;66.90;;;-8.47;100.00;94778.78;5030204;28;20017;-49
2022/12/12 04:03:01;;;;;;;139.50;18.90;;;-2.60;67.70;;;-8.49;100.00;94784.13;5034702;28;20090;-49
2022/12/12 04:08:33;;;;;;;101.07;18.63;;;-2.70;66.90;;;-8.54;100.00;94785.59;5039267;28;20024;-51
2022/12/12 04:14:31;;;;;;;62.70;16.35;;;-2.70;66.80;;;-8.55;100.00;94787.38;5032592;28;20089;-50
2022/12/12 04:17:03;;;;;;;60.97;19.00;;;-2.70;66.70;;;-8.57;100.00;94784.13;5032550;28;20044;-47
2022/12/12 04:23:14;;;;;;;51.22;18.40;;;-2.70;66.70;;;-8.55;100.00;94799.47;5033611;28;20028;-48
2022/12/12 04:26:39;;;;;;;84.15;19.65;;;-2.70;66.70;;;-8.63;100.00;94792.56;5045001;28;20103;-47
2022/12/12 04:29:17;;;;;;;56.45;18.20;;;-2.70;66.70;;;-8.64;100.00;94794.34;5032133;28;20417;-50
2022/12/12 04:32:14;;;;;;;62.35;19.35;;;-2.80;66.60;;;-8.64;99.94;94798.69;5053012;28;20036;-48
2022/12/12 04:34:58;;;;;;;56.75;18.45;;;-2.90;66.70;;;-8.71;99.90;94803.72;5034660;28;20024;-51
2022/12/12 04:37:40;;;;;;;174.00;22.33;;;-2.90;66.70;;;-8.75;99.96;94801.63;5044303;28;20112;-48
2022/12/12 04:40:15;;;;;;;138.35;19.65;;;-3.00;66.70;;;-8.78;100.00;94796.78;5043147;28;20119;-49
2022/12/12 04:42:53;;;;;;;115.97;19.92;;;-3.00;66.80;;;-8.80;100.00;94802.13;5048828;23;20140;-49
2022/12/12 04:45:44;;;;;;;106.05;18.38;;;-3.00;66.70;;;-8.91;99.89;94807.63;4993694;28;20116;-49
2022/12/12 04:48:19;;;;;;;183.48;22.85;;;-3.00;66.70;;;-8.99;99.84;94803.28;4994222;28;20095;-55
2022/12/12 04:50:50;;;;;;;56.78;17.40;;;-3.10;66.60;;;-9.04;99.82;94808.13;4997500;28;20041;-48
2022/12/12 04:53:34;;;;;;;49.10;17.75;;;-3.10;66.60;;;-9.04;99.79;94807.31;4990542;28;20081;-47
2022/12/12 04:56:12;;;;;;;70.28;18.58;;;-3.20;66.50;;;-9.04;99.42;94802.16;4988791;28;20029;-47
2022/12/12 04:58:39;;;;;;;54.13;19.33;;;-3.20;66.50;;;-9.14;98.97;94804.91;4988361;28;20120;-50
2022/12/12 05:01:56;;;;;;;84.70;19.23;;;-3.20;66.50;;;-9.15;99.39;94811.84;4980981;28;20396;-54
2022/12/12 05:04:57;;;;;;;64.18;18.05;;;-3.20;66.50;;;-9.13;99.80;94807.31;4975255;28;20475;-48
2022/12/12 05:07:41;;;;;;;49.08;17.60;;;-3.30;66.50;;;-9.08;100.00;94801.69;4984342;28;20370;-51
2022/12/12 05:10:15;;;;;;;53.35;19.38;;;-3.30;66.70;;;-9.03;100.00;94809.72;4981428;28;20063;-47
2022/12/12 05:12:58;;;;;;;44.90;17.25;;;-3.30;66.90;;;-9.02;100.00;94801.03;4981769;28;20116;-51
2022/12/12 05:15:27;;;;;;;52.58;17.92;;;-3.20;67.00;;;-8.96;100.00;94809.88;4982955;28;20504;-51
2022/12/12 05:18:04;;;;;;;42.65;17.48;;;-3.20;67.80;;;-8.90;100.00;94815.22;4972426;28;20041;-47
2022/12/12 05:20:30;;;;;;;51.53;18.85;;;-3.20;67.10;;;-8.81;100.00;94821.16;4975617;28;20377;-47
2022/12/12 05:22:56;;;;;;;62.63;18.90;;;-3.10;67.20;;;-8.72;100.00;94827.09;4970156;28;20034;-51
2022/12/12 05:25:25;;;;;;;49.03;18.15;;;-3.10;67.30;;;-8.72;100.00;94822.75;4991138;28;20026;-50
2022/12/12 05:27:53;;;;;;;43.35;18.48;;;-3.00;67.40;;;-8.64;100.00;94827.91;4989411;28;20108;-49
2022/12/12 05:30:19;;;;;;;44.42;17.58;;;-3.00;67.40;;;-8.55;100.00;94825.28;4987939;28;20048;-52
2022/12/12 05:32:45;;;;;;;45.00;18.38;;;-2.90;67.40;;;-8.47;100.00;94817.53;4970571;28;20038;-51
2022/12/12 05:35:15;;;;;;;38.90;15.80;;;-2.80;67.50;;;-8.38;100.00;94816.53;4981159;28;20029;-47
2022/12/12 05:37:52;;;;;;;44.15;16.92;;;-2.80;67.60;;;-8.27;100.00;94823.06;4985646;28;20504;-50
2022/12/12 05:40:22;;;;;;;41.55;16.60;;;-2.70;67.70;;;-8.20;100.00;94821.44;4991942;28;20049;-48
2022/12/12 05:42:48;;;;;;;38.42;16.35;;;-2.60;68.40;;;-8.13;100.00;94821.59;4986942;28;20125;-47
2022/12/12 05:45:20;;;;;;;37.03;16.13;;;-2.50;67.60;;;-8.07;100.00;94821.72;4976528;28;20063;-47
2022/12/12 05:47:55;;;;;;;36.45;14.73;;;-2.40;67.70;;;-8.01;100.00;94820.25;4987762;28;20041;-48
2022/12/12 05:50:21;;;;;;;36.30;16.38;;;-2.40;67.60;;;-7.95;100.00;94820.38;4977874;28;20484;-48
2022/12/12 05:52:47;;;;;;;39.83;16.20;;;-2.30;67.60;;;-7.86;100.00;94833.28;4978263;28;20041;-51
2022/12/12 05:55:15;;;;;;;38.08;16.15;;;-2.20;67.60;;;-7.81;100.00;94833.53;4986826;28;20025;-48
2022/12/12 05:57:47;;;;;;;37.15;16.17;;;-2.20;67.60;;;-7.74;100.00;94837.06;4990028;28;20033;-50
2022/12/12 06:00:16;;;;;;;29.83;15.18;;;-2.10;67.60;;;-7.69;100.00;94829.59;5007936;28;20029;-49
2022/12/12 06:02:42;;;;;;;35.78;15.68;;;-2.10;67.50;;;-7.64;100.00;94832.50;4991508;28;20464;-49
2022/12/12 06:05:08;;;;;;;37.53;15.73;;;-2.00;67.50;;;-7.56;100.00;94834.22;4970856;28;20018;-48
2022/12/12 06:07:40;;;;;;;34.78;14.88;;;-1.90;67.50;;;-7.51;100.00;94837.09;4966890;28;20026;-48
2022/12/12 06:10:07;;;;;;;35.58;15.40;;;-1.90;67.50;;;-7.42;100.00;94840.47;4981270;28;20396;-54
2022/12/12 06:12:33;;;;;;;31.50;14.38;;;-1.80;67.50;;;-7.35;100.00;94838.78;4989893;28;20482;-48
2022/12/12 06:14:59;;;;;;;36.58;14.77;;;-1.80;67.60;;;-7.29;100.00;94846.66;4985057;28;20105;-48
2022/12/12 06:17:25;;;;;;;32.85;15.27;;;-1.70;67.60;;;-7.23;100.00;94840.78;4999967;28;20425;-47
2022/12/12 06:19:52;;;;;;;30.30;14.15;;;-1.70;67.60;;;-7.17;100.00;94841.91;4984914;28;20097;-48
2022/12/12 06:22:18;;;;;;;32.72;14.85;;;-1.60;67.70;;;-7.10;100.00;94839.41;4979596;28;20052;-48
2022/12/12 06:24:46;;;;;;;35.35;15.68;;;-1.60;67.60;;;-7.04;100.00;94841.31;4970245;28;20457;-47
2022/12/12 06:27:12;;;;;;;35.90;14.60;;;-1.50;67.60;;;-6.99;100.00;94847.59;4990698;28;20026;-50
2022/12/12 06:29:56;;;;;;;31.35;13.88;;;-1.50;67.60;;;-6.94;100.00;94841.88;5004012;28;20507;-47
2022/12/12 06:32:25;;;;;;;28.75;14.00;;;-1.40;67.60;;;-6.90;100.00;94847.50;4991132;28;20021;-48
2022/12/12 06:34:52;;;;;;;30.95;13.63;;;-1.30;67.60;;;-6.87;100.00;94847.16;4990781;28;20109;-48
2022/12/12 06:37:20;;;;;;;29.95;14.10;;;-1.30;67.50;;;-6.84;100.00;94845.00;5004313;28;20030;-47
2022/12/12 06:39:49;;;;;;;28.25;13.15;;;-1.30;67.50;;;-6.81;100.00;94844.66;4993184;28;20516;-48
2022/12/12 06:42:18;;;;;;;28.70;13.70;;;-1.20;67.60;;;-6.75;100.00;94848.34;4988545;28;20112;-47
2022/12/12 06:44:50;;;;;;;30.10;13.57;;;-1.20;67.60;;;-6.70;100.00;94847.84;4987703;28;20022;-48
2022/12/12 06:47:22;;;;;;;32.55;14.38;;;-1.20;67.50;;;-6.67;100.00;94848.28;4989004;28;20144;-47
2022/12/12 06:49:54;;;;;;;22.10;10.53;;;-1.10;67.60;;;-6.65;100.00;94855.88;4991374;28;20033;-50
2022/12/12 06:52:23;;;;;;;36.95;14.75;;;-1.10;67.50;;;-6.64;100.00;94855.69;4987518;28;20315;-48
2022/12/12 06:54:49;;;;;;;31.50;14.25;;;-1.00;67.40;;;-6.61;100.00;94862.28;4995740;28;20064;-48
2022/12/12 06:57:14;;;;;;;29.52;13.60;;;-1.00;67.30;;;-6.60;100.00;94867.31;5005175;28;20065;-47
2022/12/12 06:59:43;;;;;;;39.33;14.70;;;-1.00;67.30;;;-6.63;100.00;94862.47;4986188;28;20121;-54
2022/12/12 07:02:11;;;;;;;32.92;13.73;;;-0.90;67.20;;;-6.64;100.00;94865.22;4971878;28;20030;-49
2022/12/12 07:04:37;;;;;;;29.60;13.40;;;-0.90;67.20;;;-6.59;100.00;94870.72;4988550;28;20104;-48
2022/12/12 07:07:03;;;;;;;31.45;14.65;;;-0.90;67.10;;;-6.58;100.00;94867.94;4985054;28;20109;-47
2022/12/12 07:09:29;;;;;;;28.60;13.23;;;-0.90;67.80;;;-6.58;100.00;94870.53;4998199;28;20271;-52
2022/12/12 07:11:57;;;;;;;29.25;14.50;;;-0.80;67.20;;;-6.53;100.00;94872.59;4992871;28;20080;-51
2022/12/12 07:14:29;;;;;;;26.10;13.23;;;-0.80;67.20;;;-6.47;100.00;94878.88;4988093;28;20025;-48
2022/12/12 07:16:55;;;;;;;26.90;13.55;;;-0.80;67.10;;;-6.49;100.00;94876.44;4989208;28;20035;-50
2022/12/12 07:19:21;;;;;;;31.35;14.48;;;-0.70;67.90;;;-6.50;100.00;94877.44;4974799;28;20113;-54
2022/12/12 07:21:48;;;;;;;27.13;13.13;;;-0.70;67.10;;;-6.43;100.00;94878.31;4988699;28;20070;-50
2022/12/12 07:24:16;;;;;;;30.33;14.10;;;-0.70;67.10;;;-6.40;100.00;94874.56;4986342;28;20026;-49
2022/12/12 07:26:42;;;;;;;31.85;15.27;;;-0.60;67.10;;;-6.33;100.00;94875.47;4989195;28;20021;-50
2022/12/12 07:29:08;;;;;;;25.40;12.75;;;-0.60;67.10;;;-6.30;100.00;94865.56;4987484;28;20026;-53
2022/12/12 07:31:34;;;;;;;30.48;14.25;;;-0.50;67.10;;;-6.20;100.00;94872.28;4971933;28;20109;-51
2022/12/12 07:34:03;;;;;;;28.92;14.07;;;-0.40;67.20;;;-6.21;100.00;94881.03;4974762;28;20030;-49
2022/12/12 07:36:29;;;;;;;27.98;13.10;;;-0.40;67.00;;;-6.16;100.00;94887.28;4982826;28;20050;-48
2022/12/12 07:38:55;;;;;;;32.67;14.38;;;-0.30;66.90;;;-6.12;100.00;94887.75;4969981;28;20131;-48
2022/12/12 07:41:21;;;;;;;28.15;13.27;;;-0.30;66.80;;;-6.07;100.00;94883.63;4979934;28;20034;-50
2022/12/12 07:43:51;;;;;;;27.50;12.77;;;-0.20;66.70;;;-6.04;100.00;94887.66;4987813;28;20057;-45
2022/12/12 07:46:23;;;;;;;32.03;15.02;;;-0.20;66.60;;;-6.00;100.00;94888.13;4991619;28;20022;-45
2022/12/12 07:48:51;;;;;;;33.45;15.85;;;-0.10;66.60;;;-6.04;100.00;94897.25;4986182;28;20022;-45
2022/12/12 07:51:22;;;;;;;33.75;15.55;;;-0.10;66.50;;;-6.02;100.00;94903.84;4989718;28;20482;-49
2022/12/12 07:53:48;;;;;;;30.13;14.68;;;0.00;66.30;;;-5.98;100.00;94899.91;4975881;28;20025;-49
2022/12/12 07:56:19;;;;;;;33.42;14.45;;;0.10;66.30;;;-5.92;100.00;94906.97;4989732;28;20026;-47
2022/12/12 07:58:45;;;;;;;30.92;14.75;;;0.10;66.20;;;-5.86;100.00;94915.78;4990122;28;20053;-47
2022/12/12 08:01:17;;;;;;;34.80;17.00;;;0.20;66.20;;;-5.82;100.00;94920.44;4988120;28;20022;-49
2022/12/12 08:03:46;;;;;;;33.28;15.98;;;0.20;66.10;;;-5.73;100.00;94920.38;4981483;28;20364;-51
2022/12/12 08:06:17;;;;;;;30.05;14.77;;;0.30;66.10;;;-5.68;99.91;94918.03;4985075;28;20045;-48
2022/12/12 08:08:46;;;;;;;30.90;14.55;;;0.40;66.10;;;-5.64;99.95;94924.47;4990192;28;20034;-47
2022/12/12 08:11:21;;;;;;;38.63;15.70;;;0.40;66.00;;;-5.61;99.80;94922.34;4977126;28;20075;-47
2022/12/12 08:13:47;;;;;;;30.77;13.90;;;0.50;65.90;;;-5.55;99.62;94917.38;4973394;28;20627;-46
2022/12/12 08:16:25;;;;;;;30.48;13.93;;;0.60;65.80;;;-5.50;99.53;94923.66;4987257;28;20133;-50
2022/12/12 08:19:00;;;;;;;32.92;15.70;;;0.70;65.80;;;-5.47;99.54;94918.09;4985498;28;20040;-47
2022/12/12 08:21:33;;;;;;;32.00;15.88;;;0.80;65.70;;;-5.44;99.15;94919.53;4977118;28;20029;-48
2022/12/12 08:24:01;;;;;;;35.75;16.08;;;0.90;65.50;;;-5.41;98.94;94919.97;4988702;28;20049;-44
2022/12/12 08:26:31;;;;;;;28.83;15.05;;;1.00;65.50;;;-5.35;98.72;94921.84;4978892;28;20037;-47
2022/12/12 08:29:00;;;;;;;23.98;12.02;;;1.10;65.30;;;-5.29;98.16;94928.09;4988645;28;20032;-50
2022/12/12 08:31:26;;;;;;;25.20;12.23;;;1.20;65.20;;;-5.20;98.01;94926.19;4976241;28;20030;-46
2022/12/12 08:33:53;;;;;;;29.55;13.82;;;1.20;64.80;;;-5.18;97.01;94925.00;4989790;28;20026;-47
2022/12/12 08:36:30;;;;;;;27.33;13.32;;;1.30;64.70;;;-5.20;96.96;94926.19;4975759;28;20080;-45
2022/12/12 08:39:13;;;;;;;24.30;12.88;;;1.30;64.50;;;-5.10;96.76;94926.72;4980255;28;20045;-51
2022/12/12 08:41:46;;;;;;;24.13;13.25;;;1.40;64.50;;;-5.07;96.23;94926.34;4989545;28;20400;-48
2022/12/12 08:44:18;;;;;;;24.08;12.85;;;1.40;64.30;;;-5.03;95.63;94932.78;4980094;28;20113;-47
2022/12/12 08:47:04;;;;;;;26.73;13.15;;;1.40;64.00;;;-5.06;95.43;94933.13;4985712;28;20021;-46
2022/12/12 08:49:30;;;;;;;25.13;12.52;;;1.50;63.90;;;-5.11;94.66;94935.47;4976337;28;20384;-47
2022/12/12 08:51:57;;;;;;;25.60;13.27;;;1.50;63.70;;;-5.11;94.52;94940.66;4984884;28;20029;-49
2022/12/12 08:54:25;;;;;;;25.38;12.77;;;1.60;63.60;;;-5.22;94.47;94943.75;4980163;28;20029;-46
2022/12/12 08:56:57;;;;;;;21.90;12.63;;;1.60;63.50;;;-5.14;94.94;94941.88;4977246;28;20034;-52
2022/12/12 08:59:25;;;;;;;22.52;12.65;;;1.60;63.30;;;-5.09;94.48;94953.50;4994446;28;20025;-48
2022/12/12 09:01:51;;;;;;;25.08;13.05;;;1.70;63.30;;;-5.13;94.15;94953.06;4976641;28;20021;-48
2022/12/12 09:04:16;;;;;;;22.77;12.30;;;1.80;63.20;;;-5.13;94.27;94947.84;4989490;28;20749;-53
2022/12/12 09:06:44;;;;;;;27.00;12.55;;;1.80;63.10;;;-5.16;94.11;94945.63;4988649;28;20112;-49
2022/12/12 09:09:16;;;;;;;24.85;12.15;;;1.80;62.90;;;-5.13;94.45;94943.47;4995763;28;20105;-47
2022/12/12 09:11:43;;;;;;;26.27;12.93;;;1.90;62.80;;;-5.16;94.39;94949.03;4979468;28;20439;-51
2022/12/12 09:14:09;;;;;;;23.80;11.98;;;1.90;62.70;;;-5.11;94.22;94948.47;4989892;28;20041;-47
2022/12/12 09:16:35;;;;;;;23.30;11.88;;;2.00;62.60;;;-5.21;94.20;94953.16;4977117;28;20029;-47
2022/12/12 09:19:02;;;;;;;24.00;12.27;;;2.00;62.40;;;-5.14;94.58;94960.03;4976040;28;20060;-50
2022/12/12 09:21:31;;;;;;;22.85;11.80;;;2.10;62.30;;;-5.30;94.53;94957.63;4988279;28;20026;-51
2022/12/12 09:23:57;;;;;;;21.58;11.75;;;2.10;62.10;;;-5.18;95.02;94961.38;4986771;28;20392;-51
2022/12/12 09:26:23;;;;;;;23.05;12.07;;;2.20;62.00;;;-5.00;94.73;94962.78;4976149;28;20540;-51
2022/12/12 09:28:49;;;;;;;23.23;13.27;;;2.20;62.00;;;-4.82;94.07;94957.19;4988550;28;20105;-48
2022/12/12 09:31:15;;;;;;;22.55;12.38;;;2.30;61.90;;;-4.94;92.89;94959.44;4987016;28;20060;-52
2022/12/12 09:33:42;;;;;;;23.02;12.05;;;2.40;61.90;;;-4.92;93.35;94954.84;4977139;28;20519;-49
2022/12/12 09:36:11;;;;;;;23.75;12.40;;;2.40;61.60;;;-5.02;93.00;94949.16;4978415;28;20033;-49
2022/12/12 09:38:43;;;;;;;23.73;12.32;;;2.50;61.40;;;-5.17;92.81;94944.00;4988416;28;20029;-48
2022/12/12 09:41:08;;;;;;;24.63;12.38;;;2.50;61.20;;;-4.95;94.10;94953.44;4987772;28;20021;-48
2022/12/12 09:44:11;;;;;;;19.67;11.43;;;2.50;61.20;;;-4.80;92.90;94950.00;4989590;28;20050;-48
2022/12/12 09:47:01;;;;;;;22.40;12.13;;;2.50;61.20;;;-4.71;92.21;94954.06;4972867;28;20353;-48
2022/12/12 09:49:50;;;;;;;21.90;11.93;;;2.60;61.20;;;-4.61;91.47;94953.78;4977440;28;20034;-51
2022/12/12 09:52:33;;;;;;;21.95;11.90;;;2.70;61.10;;;-4.48;91.64;94953.88;4976032;28;20395;-48
2022/12/12 09:55:37;;;;;;;21.95;12.25;;;2.80;61.00;;;-4.39;91.48;94950.16;4984529;28;20057;-52
2022/12/12 09:58:32;;;;;;;22.85;12.68;;;2.90;61.00;;;-4.44;90.98;94948.13;4956754;28;20056;-48
2022/12/12 10:01:26;;;;;;;21.77;11.50;;;3.00;60.70;;;-4.29;90.32;94945.47;4984825;28;20479;-51
2022/12/12 10:04:38;;;;;;;20.92;11.90;;;3.10;60.60;;;-4.21;89.66;94947.13;4989456;28;20086;-45
2022/12/12 10:07:36;;;;;;;20.77;11.77;;;3.30;60.50;;;-4.17;88.75;94943.13;4986881;28;20034;-50
2022/12/12 10:10:26;;;;;;;20.27;11.93;;;3.40;60.10;;;-4.34;87.74;94939.22;4986885;28;20076;-47
2022/12/12 10:12:58;;;;;;;23.35;12.27;;;3.40;59.80;;;-4.25;89.24;94944.09;4975542;28;20072;-53
2022/12/12 10:15:43;;;;;;;22.10;12.27;;;3.50;59.70;;;-4.11;88.27;94950.19;4983573;28;20392;-47
2022/12/12 10:18:39;;;;;;;22.35;12.45;;;3.70;59.60;;;-4.05;88.17;94946.84;4980945;28;20436;-48
2022/12/12 10:21:30;;;;;;;22.08;11.85;;;3.80;59.40;;;-3.93;87.14;94941.13;4976702;28;20029;-47
2022/12/12 10:24:45;;;;;;;19.65;12.02;;;3.90;59.30;;;-3.75;87.11;94937.03;4977678;28;20041;-46
2022/12/12 10:27:16;;;;;;;19.77;11.52;;;4.10;59.20;;;-3.69;85.70;94934.66;4965696;28;20038;-49
2022/12/12 10:29:54;;;;;;;19.40;11.60;;;4.20;58.90;;;-3.66;85.84;94934.28;4980275;28;20026;-49
2022/12/12 10:32:50;;;;;;;19.40;11.52;;;4.40;58.60;;;-3.53;85.23;94936.94;4985386;28;20034;-49
2022/12/12 10:36:00;;;;;;;18.58;11.60;;;4.50;58.50;;;-3.44;84.42;94942.81;4990332;28;20026;-45
2022/12/12 10:39:31;;;;;;;21.13;11.77;;;4.60;58.30;;;-3.35;84.23;94944.25;4988094;28;20045;-45
2022/12/12 10:45:42;;;;;;;20.95;11.73;;;4.90;57.90;;;-3.22;83.03;94944.31;5018668;28;20048;-49
2022/12/12 10:48:08;;;;;;;19.35;11.60;;;5.10;57.60;;;-3.03;82.61;94951.38;5015575;28;20032;-47
2022/12/12 10:51:06;;;;;;;21.00;12.82;;;5.30;57.70;;;-3.10;82.37;94953.19;5013463;28;20024;-48
2022/12/12 10:53:33;;;;;;;22.10;11.65;;;5.50;57.20;;;-2.89;82.49;94952.22;4999139;28;20494;-47
2022/12/12 10:56:28;;;;;;;19.08;11.55;;;5.60;57.80;;;-2.79;80.90;94949.25;4994149;28;20530;-51
2022/12/12 10:59:02;;;;;;;23.55;13.82;;;5.70;56.80;;;-2.87;79.01;94944.22;4987614;28;20033;-50
2022/12/12 11:01:38;;;;;;;19.38;12.45;;;5.80;56.60;;;-2.87;80.41;94947.63;4992147;28;20407;-47